METAR Data
IDs: Format: Raw Decoded Include TAF

Data at: 2113 UTC 01 Dec 2021

EGSS 012050Z AUTO 33008KT 9999 NCD 03/01 Q1004